createdAt,value
2019-05-05T00:02:34.239Z,100.00
2019-05-05T00:05:41.856Z,100.00
2019-05-05T00:08:49.541Z,100.00
2019-05-05T00:12:15.388Z,100.00
2019-05-05T00:15:42.403Z,100.00
2019-05-05T00:18:51.847Z,100.00
2019-05-05T00:21:59.106Z,100.00
2019-05-05T00:25:06.784Z,100.00
2019-05-05T00:28:14.413Z,100.00
2019-05-05T00:31:24.147Z,100.00
2019-05-05T00:34:31.525Z,100.00
2019-05-05T00:37:39.292Z,100.00
2019-05-05T00:40:46.651Z,100.00
2019-05-05T00:43:55.369Z,100.00
2019-05-05T00:47:18.582Z,100.00
2019-05-05T00:50:26.179Z,100.00
2019-05-05T00:53:34.718Z,100.00
2019-05-05T00:56:42.291Z,100.00
2019-05-05T00:59:49.453Z,100.00
2019-05-05T01:02:57.019Z,100.00
2019-05-05T01:06:10.981Z,100.00
2019-05-05T01:09:21.194Z,100.00
2019-05-05T01:12:29.135Z,100.00
2019-05-05T01:15:36.495Z,100.00
2019-05-05T01:18:45.063Z,100.00
2019-05-05T01:21:54.414Z,100.00
2019-05-05T01:25:02.001Z,100.00
2019-05-05T01:28:09.738Z,100.00
2019-05-05T01:31:19.001Z,100.00
2019-05-05T01:34:31.779Z,100.00
2019-05-05T01:38:00.805Z,100.00
2019-05-05T01:41:27.150Z,100.00
2019-05-05T01:44:35.235Z,100.00
2019-05-05T01:47:42.800Z,100.00
2019-05-05T01:50:50.257Z,100.00
2019-05-05T01:53:58.252Z,100.00
2019-05-05T01:57:06.116Z,100.00
2019-05-05T02:00:14.860Z,100.00
2019-05-05T02:03:24.383Z,100.00
2019-05-05T02:06:34.999Z,100.00
2019-05-05T02:09:44.801Z,100.00
2019-05-05T02:12:52.533Z,100.00
2019-05-05T02:16:00.761Z,100.00
2019-05-05T02:19:08.463Z,100.00
2019-05-05T02:22:15.945Z,100.00
2019-05-05T02:25:25.023Z,100.00
2019-05-05T02:28:39.661Z,100.00
2019-05-05T02:32:06.519Z,100.00
2019-05-05T02:35:16.204Z,100.00
2019-05-05T02:38:26.142Z,100.00
2019-05-05T02:41:34.796Z,100.00
2019-05-05T02:44:45.575Z,100.00
2019-05-05T02:48:15.127Z,100.00
2019-05-05T02:51:25.674Z,100.00
2019-05-05T02:54:34.847Z,100.00
2019-05-05T02:57:43.954Z,100.00
2019-05-05T03:01:01.264Z,100.00
2019-05-05T03:04:10.538Z,100.00
2019-05-05T03:07:20.470Z,100.00
2019-05-05T03:10:30.830Z,100.00
2019-05-05T03:13:40.602Z,100.00
2019-05-05T03:16:50.226Z,100.00
2019-05-05T03:19:58.239Z,100.00
2019-05-05T03:23:05.718Z,100.00
2019-05-05T03:26:14.599Z,100.00
2019-05-05T03:29:24.387Z,100.00
2019-05-05T03:32:35.722Z,100.00
2019-05-05T03:35:43.644Z,100.00
2019-05-05T03:38:53.636Z,100.00
2019-05-05T03:42:24.577Z,100.00
2019-05-05T03:45:42.145Z,100.00
2019-05-05T03:48:50.335Z,100.00
2019-05-05T03:51:57.800Z,100.00
2019-05-05T03:55:06.543Z,100.00
2019-05-05T03:58:14.771Z,100.00
2019-05-05T04:01:34.660Z,100.00
2019-05-05T04:04:45.960Z,100.00
2019-05-05T04:07:54.586Z,100.00
2019-05-05T04:11:03.931Z,100.00
2019-05-05T04:14:14.226Z,100.00
2019-05-05T04:17:39.898Z,100.00
2019-05-05T04:20:47.084Z,100.00
2019-05-05T04:23:54.789Z,100.00
2019-05-05T04:27:03.892Z,100.00
2019-05-05T04:30:11.525Z,100.00
2019-05-05T04:33:18.979Z,100.00
2019-05-05T04:36:26.435Z,100.00
2019-05-05T04:39:34.508Z,100.00
2019-05-05T04:42:43.865Z,100.00
2019-05-05T04:45:51.102Z,100.00
2019-05-05T04:49:15.119Z,100.00
2019-05-05T04:52:23.688Z,100.00
2019-05-05T04:55:31.177Z,100.00
2019-05-05T04:58:38.639Z,100.00
2019-05-05T05:01:48.015Z,100.00
2019-05-05T05:04:59.079Z,100.00
2019-05-05T05:08:06.563Z,100.00
2019-05-05T05:11:14.356Z,100.00
2019-05-05T05:14:24.540Z,100.00
2019-05-05T05:17:40.317Z,100.00
2019-05-05T05:20:47.915Z,100.00
2019-05-05T05:23:55.540Z,100.00
2019-05-05T05:27:05.044Z,100.00
2019-05-05T05:30:13.763Z,100.00
2019-05-05T05:33:23.740Z,100.00
2019-05-05T05:36:31.434Z,100.00
2019-05-05T05:40:00.961Z,100.00
2019-05-05T05:43:13.943Z,99.48
2019-05-05T05:46:43.872Z,99.77
2019-05-05T05:50:10.450Z,99.20
2019-05-05T05:53:17.630Z,98.78
2019-05-05T05:56:25.027Z,97.29
2019-05-05T05:59:33.957Z,97.96
2019-05-05T06:02:41.505Z,97.19
2019-05-05T06:05:49.050Z,96.64
2019-05-05T06:08:56.325Z,96.45
2019-05-05T06:12:03.829Z,94.70
2019-05-05T06:15:11.503Z,94.95
2019-05-05T06:18:18.904Z,94.55
2019-05-05T06:21:26.528Z,94.12
2019-05-05T06:25:06.522Z,97.43
2019-05-05T06:28:14.697Z,96.26
2019-05-05T06:31:24.545Z,96.38
2019-05-05T06:34:33.814Z,95.64
2019-05-05T06:37:54.281Z,96.90
2019-05-05T06:41:14.539Z,97.48
2019-05-05T06:44:28.231Z,96.75
2019-05-05T06:47:41.469Z,96.33
2019-05-05T06:50:48.956Z,95.59
2019-05-05T06:53:57.107Z,94.83
2019-05-05T06:57:04.707Z,94.34
2019-05-05T07:00:13.972Z,95.66
2019-05-05T07:03:24.319Z,94.27
2019-05-05T07:06:31.840Z,95.24
2019-05-05T07:09:39.275Z,96.62
2019-05-05T07:12:46.506Z,95.02
2019-05-05T07:15:54.364Z,93.79
2019-05-05T07:19:04.220Z,92.28
2019-05-05T07:22:11.063Z,90.92
2019-05-05T07:25:18.477Z,91.93
2019-05-05T07:28:26.724Z,92.76
2019-05-05T07:31:34.378Z,92.93
2019-05-05T07:35:10.665Z,92.05
2019-05-05T07:38:18.156Z,92.05
2019-05-05T07:41:25.648Z,91.67
2019-05-05T07:44:33.924Z,92.55
2019-05-05T07:47:43.546Z,92.74
2019-05-05T07:50:59.749Z,93.84
2019-05-05T07:54:00.628Z,96.27
2019-05-05T07:57:08.205Z,98.14
2019-05-05T08:00:16.160Z,99.43
2019-05-05T08:03:23.842Z,96.88
2019-05-05T08:06:33.757Z,93.88
2019-05-05T08:09:41.004Z,95.66
2019-05-05T08:12:48.902Z,94.03
2019-05-05T08:16:00.136Z,92.57
2019-05-05T08:19:34.653Z,88.63
2019-05-05T08:22:44.341Z,88.68
2019-05-05T08:26:10.765Z,87.21
2019-05-05T08:29:30.899Z,88.54
2019-05-05T08:32:38.502Z,88.13
2019-05-05T08:35:46.608Z,90.69
2019-05-05T08:38:54.680Z,89.55
2019-05-05T08:42:04.319Z,88.34
2019-05-05T08:45:13.905Z,86.73
2019-05-05T08:48:21.563Z,85.64
2019-05-05T08:51:29.138Z,86.25
2019-05-05T08:54:36.641Z,83.75
2019-05-05T08:57:44.710Z,87.18
2019-05-05T09:00:53.638Z,85.48
2019-05-05T09:04:01.324Z,82.24
2019-05-05T09:07:10.186Z,82.15
2019-05-05T09:10:18.178Z,83.61
2019-05-05T09:13:26.263Z,84.67
2019-05-05T09:16:35.736Z,83.37
2019-05-05T09:19:45.569Z,80.48
2019-05-05T09:22:53.653Z,77.80
2019-05-05T09:26:19.479Z,75.84
2019-05-05T09:29:35.230Z,77.17
2019-05-05T09:32:43.835Z,76.11
2019-05-05T09:35:54.154Z,78.14
2019-05-05T09:39:04.321Z,81.69
2019-05-05T09:42:11.869Z,81.40
2019-05-05T09:45:19.251Z,79.08
2019-05-05T09:48:27.140Z,74.46
2019-05-05T09:51:34.995Z,73.78
2019-05-05T09:54:43.880Z,69.44
2019-05-05T09:57:53.924Z,68.52
2019-05-05T10:01:01.186Z,69.88
2019-05-05T10:04:09.772Z,71.55
2019-05-05T10:07:17.412Z,69.62
2019-05-05T10:10:24.596Z,73.16
2019-05-05T10:13:33.593Z,70.75
2019-05-05T10:16:41.376Z,68.78
2019-05-05T10:19:49.331Z,68.49
2019-05-05T10:22:57.393Z,67.36
2019-05-05T10:26:07.632Z,67.73
2019-05-05T10:29:15.093Z,68.25
2019-05-05T10:32:24.508Z,68.12
2019-05-05T10:35:34.267Z,68.69
2019-05-05T10:38:44.717Z,71.26
2019-05-05T10:41:53.507Z,75.97
2019-05-05T10:45:01.741Z,73.68
2019-05-05T10:48:09.446Z,77.08
2019-05-05T10:51:17.860Z,73.69
2019-05-05T10:54:40.498Z,68.69
2019-05-05T10:57:36.951Z,65.99
2019-05-05T11:00:49.429Z,65.16
2019-05-05T11:03:57.362Z,60.69
2019-05-05T11:07:05.017Z,64.88
2019-05-05T11:10:16.369Z,62.89
2019-05-05T11:13:24.099Z,62.66
2019-05-05T11:16:32.452Z,61.50
2019-05-05T11:19:40.718Z,63.59
2019-05-05T11:22:48.392Z,62.55
2019-05-05T11:25:57.002Z,66.27
2019-05-05T11:29:05.047Z,67.84
2019-05-05T11:32:19.744Z,65.19
2019-05-05T11:35:44.465Z,63.21
2019-05-05T11:38:53.641Z,63.30
2019-05-05T11:42:04.389Z,61.11
2019-05-05T11:45:14.749Z,62.90
2019-05-05T11:48:24.040Z,65.47
2019-05-05T11:51:33.662Z,67.90
2019-05-05T11:54:43.528Z,69.38
2019-05-05T11:57:51.452Z,69.99
2019-05-05T12:00:59.294Z,74.57
2019-05-05T12:04:10.021Z,75.53
2019-05-05T12:07:17.848Z,76.62
2019-05-05T12:11:00.530Z,76.57
2019-05-05T12:14:10.322Z,77.79
2019-05-05T12:17:34.556Z,77.08
2019-05-05T12:20:44.038Z,77.72
2019-05-05T12:23:51.664Z,74.04
2019-05-05T12:27:34.323Z,73.12
2019-05-05T12:30:41.899Z,77.13
2019-05-05T12:33:49.350Z,78.43
2019-05-05T12:36:57.111Z,70.19
2019-05-05T12:40:07.037Z,67.66
2019-05-05T12:43:14.962Z,68.99
2019-05-05T12:46:44.107Z,69.68
2019-05-05T12:49:51.260Z,68.91
2019-05-05T12:52:59.535Z,71.08
2019-05-05T12:56:07.144Z,70.43
2019-05-05T12:59:25.516Z,68.03
2019-05-05T13:02:33.274Z,68.88
2019-05-05T13:05:41.019Z,73.94
2019-05-05T13:08:49.115Z,79.27
2019-05-05T13:11:57.015Z,79.69
2019-05-05T13:15:06.591Z,80.21
2019-05-05T13:18:14.451Z,80.62
2019-05-05T13:21:46.199Z,77.45
2019-05-05T13:25:07.797Z,74.23
2019-05-05T13:28:17.657Z,74.72
2019-05-05T13:31:25.842Z,75.00
2019-05-05T13:34:33.870Z,74.46
2019-05-05T13:37:44.261Z,73.02
2019-05-05T13:40:51.928Z,73.57
2019-05-05T13:44:01.778Z,74.45
2019-05-05T13:47:09.583Z,80.65
2019-05-05T13:50:27.553Z,80.85
2019-05-05T13:53:37.122Z,79.84
2019-05-05T13:56:45.210Z,81.01
2019-05-05T13:59:54.588Z,82.47
2019-05-05T14:03:03.905Z,79.95
2019-05-05T14:06:13.799Z,83.17
2019-05-05T14:09:44.210Z,81.85
2019-05-05T14:12:52.048Z,82.73
2019-05-05T14:15:59.778Z,84.31
2019-05-05T14:19:08.240Z,82.27
2019-05-05T14:22:16.600Z,79.87
2019-05-05T14:25:38.464Z,79.38
2019-05-05T14:28:58.382Z,75.19
2019-05-05T14:32:07.312Z,75.62
2019-05-05T14:35:34.846Z,76.31
2019-05-05T14:38:46.168Z,76.46
2019-05-05T14:41:54.014Z,72.55
2019-05-05T14:45:04.621Z,73.96
2019-05-05T14:48:13.923Z,72.55
2019-05-05T14:51:21.622Z,72.95
2019-05-05T14:54:29.688Z,69.37
2019-05-05T14:57:39.335Z,70.22
2019-05-05T15:00:47.056Z,69.67
2019-05-05T15:03:54.626Z,73.13
2019-05-05T15:07:27.849Z,76.44
2019-05-05T15:10:54.746Z,75.06
2019-05-05T15:14:04.929Z,69.62
2019-05-05T15:17:14.058Z,68.05
2019-05-05T15:20:21.695Z,69.94
2019-05-05T15:23:29.464Z,70.46
2019-05-05T15:26:49.161Z,74.07
2019-05-05T15:29:47.688Z,75.62
2019-05-05T15:32:55.136Z,81.55
2019-05-05T15:36:04.447Z,87.34
2019-05-05T15:39:13.888Z,89.85
2019-05-05T15:42:21.572Z,92.12
2019-05-05T15:45:29.204Z,92.04
2019-05-05T15:48:37.416Z,92.93
2019-05-05T15:51:45.292Z,90.26
2019-05-05T15:54:53.965Z,86.54
2019-05-05T15:58:03.546Z,84.45
2019-05-05T16:01:11.444Z,80.92
2019-05-05T16:04:19.045Z,81.03
2019-05-05T16:07:27.264Z,83.95
2019-05-05T16:10:34.851Z,86.01
2019-05-05T16:13:44.040Z,84.39
2019-05-05T16:17:09.097Z,86.00
2019-05-05T16:20:24.284Z,81.91
2019-05-05T16:23:35.936Z,82.15
2019-05-05T16:26:44.502Z,82.65
2019-05-05T16:29:52.395Z,85.26
2019-05-05T16:32:59.827Z,83.04
2019-05-05T16:36:07.392Z,82.05
2019-05-05T16:39:16.384Z,81.54
2019-05-05T16:42:24.018Z,83.86
2019-05-05T16:45:33.695Z,80.67
2019-05-05T16:48:43.784Z,85.79
2019-05-05T16:52:00.806Z,87.73
2019-05-05T16:55:27.786Z,89.60
2019-05-05T16:58:35.452Z,91.38
2019-05-05T17:01:44.565Z,91.77
2019-05-05T17:04:53.857Z,92.69
2019-05-05T17:08:01.865Z,94.06
2019-05-05T17:11:09.532Z,92.95
2019-05-05T17:14:34.382Z,84.49
2019-05-05T17:17:49.640Z,84.33
2019-05-05T17:21:01.449Z,85.40
2019-05-05T17:24:09.561Z,88.46
2019-05-05T17:27:18.083Z,89.17
2019-05-05T17:30:27.195Z,91.05
2019-05-05T17:33:35.091Z,90.79
2019-05-05T17:36:42.513Z,90.94
2019-05-05T17:40:01.341Z,90.83
2019-05-05T17:43:29.177Z,91.23
2019-05-05T17:46:47.990Z,92.10
2019-05-05T17:50:04.290Z,93.77
2019-05-05T17:53:34.824Z,94.89
2019-05-05T17:56:42.726Z,96.92
2019-05-05T17:59:50.752Z,96.94
2019-05-05T18:02:59.059Z,96.84
2019-05-05T18:06:34.295Z,97.34
2019-05-05T18:10:19.941Z,97.33
2019-05-05T18:13:35.501Z,98.51
2019-05-05T18:16:44.744Z,99.23
2019-05-05T18:19:53.555Z,99.76
2019-05-05T18:23:01.964Z,100.00
2019-05-05T18:26:10.511Z,100.00
2019-05-05T18:29:18.922Z,100.00
2019-05-05T18:32:26.414Z,100.00
2019-05-05T18:35:34.913Z,100.00
2019-05-05T18:38:44.263Z,100.00
2019-05-05T18:42:06.751Z,100.00
2019-05-05T18:45:16.084Z,100.00
2019-05-05T18:48:24.148Z,100.00
2019-05-05T18:51:32.319Z,100.00
2019-05-05T18:54:40.030Z,100.00
2019-05-05T18:57:49.895Z,100.00
2019-05-05T19:01:35.357Z,100.00
2019-05-05T19:04:50.312Z,100.00
2019-05-05T19:08:02.332Z,100.00
2019-05-05T19:11:10.174Z,100.00
2019-05-05T19:14:17.901Z,100.00
2019-05-05T19:17:28.557Z,100.00
2019-05-05T19:20:55.368Z,100.00
2019-05-05T19:24:03.932Z,100.00
2019-05-05T19:27:11.479Z,100.00
2019-05-05T19:30:20.074Z,100.00
2019-05-05T19:33:27.721Z,100.00
2019-05-05T19:36:35.459Z,100.00
2019-05-05T19:39:44.242Z,100.00
2019-05-05T19:42:53.498Z,100.00
2019-05-05T19:46:02.648Z,100.00
2019-05-05T19:49:14.732Z,100.00
2019-05-05T19:52:24.019Z,100.00
2019-05-05T19:55:33.805Z,100.00
2019-05-05T19:58:57.349Z,100.00
2019-05-05T20:01:51.483Z,100.00
2019-05-05T20:04:59.102Z,100.00
2019-05-05T20:08:08.024Z,100.00
2019-05-05T20:11:15.640Z,100.00
2019-05-05T20:14:24.749Z,100.00
2019-05-05T20:17:35.273Z,100.00
2019-05-05T20:20:44.534Z,100.00
2019-05-05T20:23:52.289Z,100.00
2019-05-05T20:27:00.437Z,100.00
2019-05-05T20:30:09.038Z,100.00
2019-05-05T20:33:26.172Z,100.00
2019-05-05T20:36:34.732Z,100.00
2019-05-05T20:39:44.020Z,100.00
2019-05-05T20:42:54.120Z,100.00
2019-05-05T20:46:01.917Z,100.00
2019-05-05T20:49:09.418Z,100.00
2019-05-05T20:52:17.900Z,100.00
2019-05-05T20:55:26.005Z,100.00
2019-05-05T20:58:34.109Z,100.00
2019-05-05T21:01:43.905Z,100.00
2019-05-05T21:04:54.130Z,100.00
2019-05-05T21:08:04.493Z,100.00
2019-05-05T21:11:13.892Z,100.00
2019-05-05T21:14:33.640Z,100.00
2019-05-05T21:17:31.197Z,100.00
2019-05-05T21:20:39.225Z,100.00
2019-05-05T21:23:54.732Z,100.00
2019-05-05T21:27:04.401Z,100.00
2019-05-05T21:30:14.198Z,100.00
2019-05-05T21:33:23.729Z,100.00
2019-05-05T21:36:33.538Z,100.00
2019-05-05T21:39:40.879Z,100.00
2019-05-05T21:42:48.491Z,100.00
2019-05-05T21:45:56.286Z,100.00
2019-05-05T21:49:04.119Z,100.00
2019-05-05T21:52:29.045Z,100.00
2019-05-05T21:55:44.574Z,100.00
2019-05-05T21:58:53.670Z,100.00
2019-05-05T22:02:03.916Z,100.00
2019-05-05T22:05:14.827Z,100.00
2019-05-05T22:08:23.935Z,100.00
2019-05-05T22:11:31.960Z,100.00
2019-05-05T22:14:39.977Z,100.00
2019-05-05T22:17:47.457Z,100.00
2019-05-05T22:21:15.020Z,100.00
2019-05-05T22:24:23.373Z,100.00
2019-05-05T22:27:30.997Z,100.00
2019-05-05T22:30:58.306Z,100.00
2019-05-05T22:34:06.791Z,100.00
2019-05-05T22:37:14.592Z,100.00
2019-05-05T22:40:24.429Z,100.00
2019-05-05T22:43:32.116Z,100.00
2019-05-05T22:46:39.992Z,100.00
2019-05-05T22:49:47.806Z,100.00
2019-05-05T22:52:55.655Z,100.00
2019-05-05T22:56:04.030Z,100.00
2019-05-05T22:59:13.784Z,100.00
2019-05-05T23:02:24.384Z,100.00
2019-05-05T23:05:38.730Z,100.00
2019-05-05T23:08:46.144Z,100.00
2019-05-05T23:11:54.590Z,100.00
2019-05-05T23:15:04.030Z,100.00
2019-05-05T23:18:29.701Z,100.00
2019-05-05T23:21:46.043Z,100.00
2019-05-05T23:25:03.614Z,100.00
2019-05-05T23:28:14.695Z,100.00
2019-05-05T23:31:24.119Z,100.00
2019-05-05T23:34:33.823Z,100.00
2019-05-05T23:37:41.774Z,100.00
2019-05-05T23:40:49.299Z,100.00
2019-05-05T23:43:56.964Z,100.00
2019-05-05T23:47:04.981Z,100.00
2019-05-05T23:50:13.436Z,100.00
2019-05-05T23:53:21.132Z,100.00
2019-05-05T23:56:28.810Z,100.00
2019-05-05T23:59:36.635Z,100.00
